sensor_id;sensor_type;location;lat;lon;timestamp;pressure;altitude;pressure_sealevel;temperature;humidity
58102;BME280;52034;51.926;6.320;2022-12-18T00:00:47;102886.16;;;-6.55;90.42
58102;BME280;52034;51.926;6.320;2022-12-18T00:01:47;102878.56;;;-6.48;90.14
58102;BME280;52034;51.926;6.320;2022-12-18T00:02:48;102881.56;;;-6.38;90.58
58102;BME280;52034;51.926;6.320;2022-12-18T00:03:50;102886.66;;;-6.38;90.41
58102;BME280;52034;51.926;6.320;2022-12-18T00:04:50;102883.31;;;-6.44;89.94
58102;BME280;52034;51.926;6.320;2022-12-18T00:05:52;102881.91;;;-6.42;89.73
58102;BME280;52034;51.926;6.320;2022-12-18T00:06:53;102883.13;;;-6.45;90.35
58102;BME280;52034;51.926;6.320;2022-12-18T00:07:53;102881.47;;;-6.52;89.70
58102;BME280;52034;51.926;6.320;2022-12-18T00:08:56;102881.75;;;-6.63;90.11
58102;BME280;52034;51.926;6.320;2022-12-18T00:09:56;102886.13;;;-6.62;90.16
58102;BME280;52034;51.926;6.320;2022-12-18T00:11:03;102886.53;;;-6.52;90.88
58102;BME280;52034;51.926;6.320;2022-12-18T00:12:04;102877.44;;;-6.57;89.30
58102;BME280;52034;51.926;6.320;2022-12-18T00:13:04;102884.59;;;-6.47;90.29
58102;BME280;52034;51.926;6.320;2022-12-18T00:14:05;102879.34;;;-6.42;88.86
58102;BME280;52034;51.926;6.320;2022-12-18T00:15:05;102881.09;;;-6.55;88.23
58102;BME280;52034;51.926;6.320;2022-12-18T00:16:12;102879.94;;;-6.64;87.40
58102;BME280;52034;51.926;6.320;2022-12-18T00:17:13;102880.88;;;-6.84;88.05
58102;BME280;52034;51.926;6.320;2022-12-18T00:18:13;102877.50;;;-6.97;87.94
58102;BME280;52034;51.926;6.320;2022-12-18T00:19:14;102879.97;;;-7.04;89.17
58102;BME280;52034;51.926;6.320;2022-12-18T00:20:15;102885.00;;;-6.92;89.06
58102;BME280;52034;51.926;6.320;2022-12-18T00:21:15;102876.56;;;-6.78;89.56
58102;BME280;52034;51.926;6.320;2022-12-18T00:22:17;102876.28;;;-6.66;88.44
58102;BME280;52034;51.926;6.320;2022-12-18T00:23:17;102870.31;;;-6.87;89.78
58102;BME280;52034;51.926;6.320;2022-12-18T00:24:17;102868.69;;;-6.86;90.71
58102;BME280;52034;51.926;6.320;2022-12-18T00:25:18;102863.81;;;-6.85;89.77
58102;BME280;52034;51.926;6.320;2022-12-18T00:26:27;102868.38;;;-7.02;89.45
58102;BME280;52034;51.926;6.320;2022-12-18T00:27:31;102863.81;;;-7.05;89.57
58102;BME280;52034;51.926;6.320;2022-12-18T00:28:31;102864.69;;;-6.92;89.09
58102;BME280;52034;51.926;6.320;2022-12-18T00:29:32;102868.81;;;-6.92;89.26
58102;BME280;52034;51.926;6.320;2022-12-18T00:30:32;102866.56;;;-6.83;88.61
58102;BME280;52034;51.926;6.320;2022-12-18T00:31:33;102871.38;;;-6.92;87.89
58102;BME280;52034;51.926;6.320;2022-12-18T00:32:34;102867.13;;;-6.99;88.07
58102;BME280;52034;51.926;6.320;2022-12-18T00:33:36;102867.47;;;-7.03;88.52
58102;BME280;52034;51.926;6.320;2022-12-18T00:34:37;102872.75;;;-7.01;87.94
58102;BME280;52034;51.926;6.320;2022-12-18T00:35:37;102871.75;;;-7.09;89.16
58102;BME280;52034;51.926;6.320;2022-12-18T00:36:38;102873.53;;;-7.15;88.48
58102;BME280;52034;51.926;6.320;2022-12-18T00:37:38;102868.38;;;-7.23;89.17
58102;BME280;52034;51.926;6.320;2022-12-18T00:38:39;102873.25;;;-7.24;89.26
58102;BME280;52034;51.926;6.320;2022-12-18T00:39:40;102878.66;;;-7.28;88.00
58102;BME280;52034;51.926;6.320;2022-12-18T00:40:40;102876.97;;;-7.35;87.88
58102;BME280;52034;51.926;6.320;2022-12-18T00:41:40;102873.53;;;-7.35;87.88
58102;BME280;52034;51.926;6.320;2022-12-18T00:43:00;102880.19;;;-7.23;87.87
58102;BME280;52034;51.926;6.320;2022-12-18T00:44:00;102881.81;;;-7.24;87.18
58102;BME280;52034;51.926;6.320;2022-12-18T00:45:01;102876.13;;;-7.28;87.40
58102;BME280;52034;51.926;6.320;2022-12-18T00:46:02;102876.75;;;-7.24;88.77
58102;BME280;52034;51.926;6.320;2022-12-18T00:47:02;102873.59;;;-7.08;88.68
58102;BME280;52034;51.926;6.320;2022-12-18T00:48:02;102875.28;;;-7.01;89.68
58102;BME280;52034;51.926;6.320;2022-12-18T00:49:03;102865.91;;;-6.95;90.00
58102;BME280;52034;51.926;6.320;2022-12-18T00:50:04;102871.88;;;-6.95;90.13
58102;BME280;52034;51.926;6.320;2022-12-18T00:51:05;102865.75;;;-6.90;89.64
58102;BME280;52034;51.926;6.320;2022-12-18T00:52:06;102868.91;;;-6.85;90.00
58102;BME280;52034;51.926;6.320;2022-12-18T00:53:07;102865.44;;;-6.85;90.23
58102;BME280;52034;51.926;6.320;2022-12-18T00:54:10;102863.03;;;-6.91;89.24
58102;BME280;52034;51.926;6.320;2022-12-18T00:55:11;102865.25;;;-6.87;88.85
58102;BME280;52034;51.926;6.320;2022-12-18T00:56:12;102859.44;;;-6.86;88.49
58102;BME280;52034;51.926;6.320;2022-12-18T00:57:12;102859.59;;;-6.92;88.48
58102;BME280;52034;51.926;6.320;2022-12-18T00:58:14;102858.84;;;-6.91;89.29
58102;BME280;52034;51.926;6.320;2022-12-18T00:59:17;102864.88;;;-6.90;89.32
58102;BME280;52034;51.926;6.320;2022-12-18T01:00:17;102870.66;;;-6.91;89.86
58102;BME280;52034;51.926;6.320;2022-12-18T01:01:18;102865.75;;;-6.90;89.54
58102;BME280;52034;51.926;6.320;2022-12-18T01:02:18;102870.88;;;-6.82;89.08
58102;BME280;52034;51.926;6.320;2022-12-18T01:03:18;102868.31;;;-6.90;89.16
58102;BME280;52034;51.926;6.320;2022-12-18T01:04:19;102872.16;;;-6.86;89.91
58102;BME280;52034;51.926;6.320;2022-12-18T01:05:20;102873.34;;;-6.97;88.93
58102;BME280;52034;51.926;6.320;2022-12-18T01:06:20;102869.00;;;-6.91;89.31
58102;BME280;52034;51.926;6.320;2022-12-18T01:07:21;102872.81;;;-6.94;88.98
58102;BME280;52034;51.926;6.320;2022-12-18T01:08:21;102876.00;;;-7.02;89.51
58102;BME280;52034;51.926;6.320;2022-12-18T01:09:21;102877.25;;;-7.06;88.55
58102;BME280;52034;51.926;6.320;2022-12-18T01:10:22;102870.00;;;-7.23;88.46
58102;BME280;52034;51.926;6.320;2022-12-18T01:11:23;102871.75;;;-7.29;88.46
58102;BME280;52034;51.926;6.320;2022-12-18T01:12:24;102862.78;;;-7.40;88.62
58102;BME280;52034;51.926;6.320;2022-12-18T01:13:24;102869.81;;;-7.45;89.20
58102;BME280;52034;51.926;6.320;2022-12-18T01:14:25;102861.34;;;-7.38;88.92
58102;BME280;52034;51.926;6.320;2022-12-18T01:15:26;102853.28;;;-7.28;89.50
58102;BME280;52034;51.926;6.320;2022-12-18T01:16:27;102870.47;;;-7.13;88.99
58102;BME280;52034;51.926;6.320;2022-12-18T01:17:27;102868.78;;;-6.99;89.46
58102;BME280;52034;51.926;6.320;2022-12-18T01:18:27;102872.41;;;-6.97;89.04
58102;BME280;52034;51.926;6.320;2022-12-18T01:19:28;102873.44;;;-7.02;88.77
58102;BME280;52034;51.926;6.320;2022-12-18T01:20:28;102868.00;;;-7.06;89.14
58102;BME280;52034;51.926;6.320;2022-12-18T01:21:29;102871.06;;;-7.08;89.12
58102;BME280;52034;51.926;6.320;2022-12-18T01:22:29;102869.56;;;-7.13;89.27
58102;BME280;52034;51.926;6.320;2022-12-18T01:23:29;102864.09;;;-7.16;89.04
58102;BME280;52034;51.926;6.320;2022-12-18T01:24:30;102863.19;;;-7.17;89.12
58102;BME280;52034;51.926;6.320;2022-12-18T01:25:31;102867.63;;;-7.09;88.91
58102;BME280;52034;51.926;6.320;2022-12-18T01:26:31;102860.19;;;-7.07;89.07
58102;BME280;52034;51.926;6.320;2022-12-18T01:27:33;102869.81;;;-7.04;88.30
58102;BME280;52034;51.926;6.320;2022-12-18T01:28:33;102868.38;;;-7.02;89.11
58102;BME280;52034;51.926;6.320;2022-12-18T01:29:36;102852.22;;;-7.03;88.47
58102;BME280;52034;51.926;6.320;2022-12-18T01:30:36;102867.22;;;-6.92;89.43
58102;BME280;52034;51.926;6.320;2022-12-18T01:31:36;102853.22;;;-6.95;88.63
58102;BME280;52034;51.926;6.320;2022-12-18T01:32:37;102854.09;;;-6.95;88.45
58102;BME280;52034;51.926;6.320;2022-12-18T01:33:37;102855.75;;;-6.95;89.10
58102;BME280;52034;51.926;6.320;2022-12-18T01:34:37;102861.88;;;-7.00;88.90
58102;BME280;52034;51.926;6.320;2022-12-18T01:35:42;102855.66;;;-7.02;89.50
58102;BME280;52034;51.926;6.320;2022-12-18T01:36:42;102856.06;;;-6.99;89.03
58102;BME280;52034;51.926;6.320;2022-12-18T01:37:43;102857.56;;;-6.94;88.71
58102;BME280;52034;51.926;6.320;2022-12-18T01:38:43;102853.88;;;-7.03;89.59
58102;BME280;52034;51.926;6.320;2022-12-18T01:39:44;102856.06;;;-6.99;88.79
58102;BME280;52034;51.926;6.320;2022-12-18T01:40:44;102850.81;;;-7.01;88.50
58102;BME280;52034;51.926;6.320;2022-12-18T01:41:46;102860.75;;;-7.02;89.16
58102;BME280;52034;51.926;6.320;2022-12-18T01:43:04;102864.97;;;-6.96;90.21
58102;BME280;52034;51.926;6.320;2022-12-18T01:45:43;102859.78;;;-6.90;88.96
58102;BME280;52034;51.926;6.320;2022-12-18T01:46:44;102865.19;;;-6.94;88.41
58102;BME280;52034;51.926;6.320;2022-12-18T01:47:54;102861.16;;;-6.99;88.12
58102;BME280;52034;51.926;6.320;2022-12-18T01:49:00;102857.16;;;-6.97;87.83
58102;BME280;52034;51.926;6.320;2022-12-18T01:50:06;102855.75;;;-6.95;89.17
58102;BME280;52034;51.926;6.320;2022-12-18T01:51:09;102858.63;;;-6.99;88.78
58102;BME280;52034;51.926;6.320;2022-12-18T01:52:10;102857.56;;;-6.94;89.85
58102;BME280;52034;51.926;6.320;2022-12-18T01:53:14;102856.47;;;-6.96;89.97
58102;BME280;52034;51.926;6.320;2022-12-18T01:54:15;102858.63;;;-6.99;89.31
58102;BME280;52034;51.926;6.320;2022-12-18T01:55:18;102857.69;;;-7.00;90.18
58102;BME280;52034;51.926;6.320;2022-12-18T01:56:20;102859.66;;;-7.04;90.15
58102;BME280;52034;51.926;6.320;2022-12-18T01:57:24;102859.31;;;-7.00;90.17
58102;BME280;52034;51.926;6.320;2022-12-18T01:58:52;102859.13;;;-7.02;89.38
58102;BME280;52034;51.926;6.320;2022-12-18T01:59:57;102863.81;;;-7.05;89.40
58102;BME280;52034;51.926;6.320;2022-12-18T02:00:59;102870.28;;;-6.94;88.94
58102;BME280;52034;51.926;6.320;2022-12-18T02:01:59;102870.72;;;-7.04;88.98
58102;BME280;52034;51.926;6.320;2022-12-18T02:03:00;102866.91;;;-7.08;89.00
58102;BME280;52034;51.926;6.320;2022-12-18T02:04:21;102870.84;;;-7.10;89.71
58102;BME280;52034;51.926;6.320;2022-12-18T02:05:34;102870.66;;;-7.11;89.52
58102;BME280;52034;51.926;6.320;2022-12-18T02:06:40;102860.00;;;-7.09;89.14
58102;BME280;52034;51.926;6.320;2022-12-18T02:08:03;102866.69;;;-7.09;88.96
58102;BME280;52034;51.926;6.320;2022-12-18T02:09:13;102859.38;;;-7.13;88.43
58102;BME280;52034;51.926;6.320;2022-12-18T02:10:24;102862.72;;;-7.27;88.86
58102;BME280;52034;51.926;6.320;2022-12-18T02:11:51;102868.19;;;-7.24;88.40
58102;BME280;52034;51.926;6.320;2022-12-18T02:13:04;102858.88;;;-7.31;89.29
58102;BME280;52034;51.926;6.320;2022-12-18T02:15:18;102871.75;;;-7.49;88.74
58102;BME280;52034;51.926;6.320;2022-12-18T02:16:36;102876.41;;;-7.40;89.73
58102;BME280;52034;51.926;6.320;2022-12-18T02:17:44;102875.81;;;-7.24;89.34
58102;BME280;52034;51.926;6.320;2022-12-18T02:18:55;102873.34;;;-7.17;89.59
58102;BME280;52034;51.926;6.320;2022-12-18T02:20:32;102873.06;;;-7.26;89.84
58102;BME280;52034;51.926;6.320;2022-12-18T02:23:29;102872.75;;;-7.22;88.58
58102;BME280;52034;51.926;6.320;2022-12-18T02:26:02;102843.25;;;-7.54;88.98
58102;BME280;52034;51.926;6.320;2022-12-18T02:27:07;102865.91;;;-7.35;88.51
58102;BME280;52034;51.926;6.320;2022-12-18T02:28:12;102857.13;;;-7.45;89.48
58102;BME280;52034;51.926;6.320;2022-12-18T02:29:21;102859.19;;;-7.55;88.21
58102;BME280;52034;51.926;6.320;2022-12-18T02:30:23;102849.88;;;-7.62;88.10
58102;BME280;52034;51.926;6.320;2022-12-18T02:31:26;102857.28;;;-7.63;88.01
58102;BME280;52034;51.926;6.320;2022-12-18T02:32:35;102845.13;;;-7.66;88.42
58102;BME280;52034;51.926;6.320;2022-12-18T02:33:39;102847.28;;;-7.69;89.00
58102;BME280;52034;51.926;6.320;2022-12-18T02:34:41;102845.25;;;-7.71;89.24
58102;BME280;52034;51.926;6.320;2022-12-18T02:35:47;102847.31;;;-7.62;89.47
58102;BME280;52034;51.926;6.320;2022-12-18T02:36:49;102853.78;;;-7.51;89.29
58102;BME280;52034;51.926;6.320;2022-12-18T02:37:52;102855.75;;;-7.35;89.05
58102;BME280;52034;51.926;6.320;2022-12-18T02:38:54;102852.81;;;-7.39;89.09
58102;BME280;52034;51.926;6.320;2022-12-18T02:39:56;102853.78;;;-7.31;88.83
58102;BME280;52034;51.926;6.320;2022-12-18T02:40:59;102855.88;;;-7.21;89.57
58102;BME280;52034;51.926;6.320;2022-12-18T02:42:01;102854.44;;;-7.19;89.37
58102;BME280;52034;51.926;6.320;2022-12-18T02:43:13;102855.94;;;-7.14;88.88
58102;BME280;52034;51.926;6.320;2022-12-18T02:44:13;102864.22;;;-7.22;88.18
58102;BME280;52034;51.926;6.320;2022-12-18T02:45:15;102861.38;;;-7.18;88.66
58102;BME280;52034;51.926;6.320;2022-12-18T02:46:36;102864.59;;;-7.19;88.21
58102;BME280;52034;51.926;6.320;2022-12-18T02:47:46;102863.72;;;-7.19;87.39
58102;BME280;52034;51.926;6.320;2022-12-18T02:48:48;102863.91;;;-7.18;87.66
58102;BME280;52034;51.926;6.320;2022-12-18T02:51:05;102860.63;;;-7.37;87.65
58102;BME280;52034;51.926;6.320;2022-12-18T02:53:30;102861.06;;;-7.47;87.59
58102;BME280;52034;51.926;6.320;2022-12-18T02:54:55;102856.13;;;-7.52;88.05
58102;BME280;52034;51.926;6.320;2022-12-18T02:56:05;102865.81;;;-7.63;88.50
58102;BME280;52034;51.926;6.320;2022-12-18T02:57:40;102863.97;;;-7.64;88.47
58102;BME280;52034;51.926;6.320;2022-12-18T02:58:48;102858.00;;;-7.64;89.06
58102;BME280;52034;51.926;6.320;2022-12-18T03:03:55;102856.38;;;-7.97;88.83
58102;BME280;52034;51.926;6.320;2022-12-18T03:06:14;102846.28;;;-7.90;89.45
58102;BME280;52034;51.926;6.320;2022-12-18T03:07:38;102855.41;;;-7.84;89.27
58102;BME280;52034;51.926;6.320;2022-12-18T03:08:46;102846.06;;;-7.78;89.58
58102;BME280;52034;51.926;6.320;2022-12-18T03:09:50;102845.06;;;-7.86;89.18
58102;BME280;52034;51.926;6.320;2022-12-18T03:10:57;102853.72;;;-7.91;88.55
58102;BME280;52034;51.926;6.320;2022-12-18T03:12:09;102851.25;;;-7.84;89.56
58102;BME280;52034;51.926;6.320;2022-12-18T03:13:32;102849.97;;;-7.87;88.80
58102;BME280;52034;51.926;6.320;2022-12-18T03:14:37;102851.88;;;-7.92;89.51
58102;BME280;52034;51.926;6.320;2022-12-18T03:15:42;102849.72;;;-7.89;89.52
58102;BME280;52034;51.926;6.320;2022-12-18T03:16:49;102856.22;;;-7.78;88.98
58102;BME280;52034;51.926;6.320;2022-12-18T03:17:57;102850.09;;;-7.73;88.66
58102;BME280;52034;51.926;6.320;2022-12-18T03:19:05;102846.94;;;-7.65;88.71
58102;BME280;52034;51.926;6.320;2022-12-18T03:20:19;102854.09;;;-7.55;88.20
58102;BME280;52034;51.926;6.320;2022-12-18T03:21:28;102853.06;;;-7.50;88.99
58102;BME280;52034;51.926;6.320;2022-12-18T03:22:33;102856.84;;;-7.53;88.46
58102;BME280;52034;51.926;6.320;2022-12-18T03:23:45;102857.31;;;-7.43;88.19
58102;BME280;52034;51.926;6.320;2022-12-18T03:24:48;102858.22;;;-7.43;88.21
58102;BME280;52034;51.926;6.320;2022-12-18T03:25:52;102849.59;;;-7.50;88.09
58102;BME280;52034;51.926;6.320;2022-12-18T03:26:59;102852.75;;;-7.46;88.14
58102;BME280;52034;51.926;6.320;2022-12-18T03:28:03;102846.56;;;-7.48;88.76
58102;BME280;52034;51.926;6.320;2022-12-18T03:29:13;102843.06;;;-7.56;88.65
58102;BME280;52034;51.926;6.320;2022-12-18T03:30:15;102842.28;;;-7.42;88.12
58102;BME280;52034;51.926;6.320;2022-12-18T03:31:20;102841.56;;;-7.41;88.92
58102;BME280;52034;51.926;6.320;2022-12-18T03:32:28;102841.25;;;-7.36;88.64
58102;BME280;52034;51.926;6.320;2022-12-18T03:33:40;102842.75;;;-7.31;89.41
58102;BME280;52034;51.926;6.320;2022-12-18T03:34:44;102845.28;;;-7.31;88.86
58102;BME280;52034;51.926;6.320;2022-12-18T03:35:49;102838.03;;;-7.28;88.60
58102;BME280;52034;51.926;6.320;2022-12-18T03:36:51;102842.09;;;-7.23;88.96
58102;BME280;52034;51.926;6.320;2022-12-18T03:37:52;102832.72;;;-7.17;89.33
58102;BME280;52034;51.926;6.320;2022-12-18T03:38:52;102834.09;;;-7.26;88.14
58102;BME280;52034;51.926;6.320;2022-12-18T03:39:54;102824.56;;;-7.34;88.79
58102;BME280;52034;51.926;6.320;2022-12-18T03:41:05;102828.59;;;-7.29;88.52
58102;BME280;52034;51.926;6.320;2022-12-18T03:43:35;102824.69;;;-7.40;88.17
58102;BME280;52034;51.926;6.320;2022-12-18T03:44:44;102829.97;;;-7.39;88.36
58102;BME280;52034;51.926;6.320;2022-12-18T03:45:54;102823.59;;;-7.42;88.52
58102;BME280;52034;51.926;6.320;2022-12-18T03:48:50;102825.41;;;-7.41;88.63
58102;BME280;52034;51.926;6.320;2022-12-18T03:49:59;102828.25;;;-7.45;88.77
58102;BME280;52034;51.926;6.320;2022-12-18T03:51:11;102828.59;;;-7.49;88.34
58102;BME280;52034;51.926;6.320;2022-12-18T03:52:25;102819.47;;;-7.54;88.81
58102;BME280;52034;51.926;6.320;2022-12-18T03:53:58;102821.94;;;-7.62;88.61
58102;BME280;52034;51.926;6.320;2022-12-18T03:55:06;102817.34;;;-7.71;89.02
58102;BME280;52034;51.926;6.320;2022-12-18T03:56:08;102813.03;;;-7.65;89.25
58102;BME280;52034;51.926;6.320;2022-12-18T03:57:18;102812.88;;;-7.60;89.24
58102;BME280;52034;51.926;6.320;2022-12-18T03:58:24;102811.09;;;-7.61;88.13
58102;BME280;52034;51.926;6.320;2022-12-18T03:59:33;102818.09;;;-7.65;89.04
58102;BME280;52034;51.926;6.320;2022-12-18T04:00:34;102816.69;;;-7.63;89.20
58102;BME280;52034;51.926;6.320;2022-12-18T04:01:45;102819.03;;;-7.65;88.50
58102;BME280;52034;51.926;6.320;2022-12-18T04:02:51;102815.38;;;-7.47;89.31
58102;BME280;52034;51.926;6.320;2022-12-18T04:03:59;102816.38;;;-7.39;89.22
58102;BME280;52034;51.926;6.320;2022-12-18T04:05:03;102812.50;;;-7.43;88.41
58102;BME280;52034;51.926;6.320;2022-12-18T04:06:07;102810.63;;;-7.51;89.10
58102;BME280;52034;51.926;6.320;2022-12-18T04:07:07;102816.53;;;-7.58;88.63
58102;BME280;52034;51.926;6.320;2022-12-18T04:08:12;102816.53;;;-7.78;88.74
58102;BME280;52034;51.926;6.320;2022-12-18T04:09:18;102813.38;;;-7.82;89.48
58102;BME280;52034;51.926;6.320;2022-12-18T04:10:20;102821.22;;;-7.81;89.00
58102;BME280;52034;51.926;6.320;2022-12-18T04:11:21;102815.03;;;-7.83;88.20
58102;BME280;52034;51.926;6.320;2022-12-18T04:12:25;102820.91;;;-7.77;88.65
58102;BME280;52034;51.926;6.320;2022-12-18T04:13:35;102820.44;;;-7.67;89.42
58102;BME280;52034;51.926;6.320;2022-12-18T04:14:39;102827.22;;;-7.60;89.03
58102;BME280;52034;51.926;6.320;2022-12-18T04:15:42;102822.53;;;-7.57;89.32
58102;BME280;52034;51.926;6.320;2022-12-18T04:16:46;102820.59;;;-7.52;89.00
58102;BME280;52034;51.926;6.320;2022-12-18T04:17:50;102823.31;;;-7.51;88.94
58102;BME280;52034;51.926;6.320;2022-12-18T04:18:54;102829.44;;;-7.56;88.23
58102;BME280;52034;51.926;6.320;2022-12-18T04:19:56;102830.94;;;-7.51;88.72
58102;BME280;52034;51.926;6.320;2022-12-18T04:20:58;102826.97;;;-7.49;87.97
58102;BME280;52034;51.926;6.320;2022-12-18T04:21:58;102831.41;;;-7.41;87.94
58102;BME280;52034;51.926;6.320;2022-12-18T04:23:00;102826.66;;;-7.45;88.25
58102;BME280;52034;51.926;6.320;2022-12-18T04:24:00;102823.00;;;-7.47;88.26
58102;BME280;52034;51.926;6.320;2022-12-18T04:25:02;102819.28;;;-7.56;89.38
58102;BME280;52034;51.926;6.320;2022-12-18T04:26:09;102813.88;;;-7.52;89.68
58102;BME280;52034;51.926;6.320;2022-12-18T04:27:19;102808.47;;;-7.48;89.24
58102;BME280;52034;51.926;6.320;2022-12-18T04:28:23;102814.66;;;-7.46;89.12
58102;BME280;52034;51.926;6.320;2022-12-18T04:29:23;102811.09;;;-7.41;88.95
58102;BME280;52034;51.926;6.320;2022-12-18T04:30:23;102817.44;;;-7.37;88.46
58102;BME280;52034;51.926;6.320;2022-12-18T04:31:24;102811.47;;;-7.37;88.89
58102;BME280;52034;51.926;6.320;2022-12-18T04:32:25;102807.06;;;-7.46;89.04
58102;BME280;52034;51.926;6.320;2022-12-18T04:33:25;102797.69;;;-7.40;89.32
58102;BME280;52034;51.926;6.320;2022-12-18T04:34:26;102805.56;;;-7.31;88.92
58102;BME280;52034;51.926;6.320;2022-12-18T04:35:27;102791.53;;;-7.34;88.72
58102;BME280;52034;51.926;6.320;2022-12-18T04:36:28;102812.84;;;-7.27;88.08
58102;BME280;52034;51.926;6.320;2022-12-18T04:37:29;102810.09;;;-7.28;88.92
58102;BME280;52034;51.926;6.320;2022-12-18T04:38:30;102805.88;;;-7.35;88.91
58102;BME280;52034;51.926;6.320;2022-12-18T04:39:37;102815.13;;;-7.35;88.14
58102;BME280;52034;51.926;6.320;2022-12-18T04:40:43;102811.09;;;-7.41;88.54
58102;BME280;52034;51.926;6.320;2022-12-18T04:41:51;102815.75;;;-7.44;88.83
58102;BME280;52034;51.926;6.320;2022-12-18T04:42:51;102810.25;;;-7.54;87.95
58102;BME280;52034;51.926;6.320;2022-12-18T04:43:52;102802.63;;;-7.54;88.45
58102;BME280;52034;51.926;6.320;2022-12-18T04:44:52;102796.28;;;-7.50;89.15
58102;BME280;52034;51.926;6.320;2022-12-18T04:45:52;102800.16;;;-7.47;89.09
58102;BME280;52034;51.926;6.320;2022-12-18T04:46:53;102793.06;;;-7.49;89.59
58102;BME280;52034;51.926;6.320;2022-12-18T04:47:53;102794.16;;;-7.47;88.70
58102;BME280;52034;51.926;6.320;2022-12-18T04:48:53;102797.69;;;-7.40;89.49
58102;BME280;52034;51.926;6.320;2022-12-18T04:49:54;102790.84;;;-7.33;89.52
58102;BME280;52034;51.926;6.320;2022-12-18T04:50:54;102795.69;;;-7.42;89.15
58102;BME280;52034;51.926;6.320;2022-12-18T04:51:54;102778.22;;;-7.46;88.83
58102;BME280;52034;51.926;6.320;2022-12-18T04:52:55;102793.25;;;-7.48;89.16
58102;BME280;52034;51.926;6.320;2022-12-18T04:53:55;102794.94;;;-7.41;88.71
58102;BME280;52034;51.926;6.320;2022-12-18T04:54:55;102797.09;;;-7.44;88.40
58102;BME280;52034;51.926;6.320;2022-12-18T04:56:07;102796.09;;;-7.32;89.61
58102;BME280;52034;51.926;6.320;2022-12-18T04:57:08;102797.75;;;-7.32;89.06
58102;BME280;52034;51.926;6.320;2022-12-18T04:58:08;102792.84;;;-7.31;88.30
58102;BME280;52034;51.926;6.320;2022-12-18T04:59:09;102796.63;;;-7.34;88.36
58102;BME280;52034;51.926;6.320;2022-12-18T05:00:10;102798.59;;;-7.39;89.01
58102;BME280;52034;51.926;6.320;2022-12-18T05:01:12;102793.31;;;-7.41;89.17
58102;BME280;52034;51.926;6.320;2022-12-18T05:02:12;102793.84;;;-7.43;89.43
58102;BME280;52034;51.926;6.320;2022-12-18T05:03:13;102797.38;;;-7.35;88.46
58102;BME280;52034;51.926;6.320;2022-12-18T05:04:13;102792.28;;;-7.35;88.48
58102;BME280;52034;51.926;6.320;2022-12-18T05:05:14;102800.09;;;-7.34;89.09
58102;BME280;52034;51.926;6.320;2022-12-18T05:06:14;102793.38;;;-7.33;88.36
58102;BME280;52034;51.926;6.320;2022-12-18T05:07:14;102796.63;;;-7.34;88.15
58102;BME280;52034;51.926;6.320;2022-12-18T05:08:15;102799.16;;;-7.34;88.46
58102;BME280;52034;51.926;6.320;2022-12-18T05:09:15;102797.38;;;-7.35;88.81
58102;BME280;52034;51.926;6.320;2022-12-18T05:10:15;102803.00;;;-7.31;88.05
58102;BME280;52034;51.926;6.320;2022-12-18T05:11:16;102800.47;;;-7.31;88.99
58102;BME280;52034;51.926;6.320;2022-12-18T05:12:16;102798.41;;;-7.41;88.64
58102;BME280;52034;51.926;6.320;2022-12-18T05:13:17;102793.50;;;-7.39;88.46
58102;BME280;52034;51.926;6.320;2022-12-18T05:14:17;102789.84;;;-7.41;88.72
58102;BME280;52034;51.926;6.320;2022-12-18T05:15:18;102789.34;;;-7.39;88.42
58102;BME280;52034;51.926;6.320;2022-12-18T05:16:18;102783.09;;;-7.48;89.08
58102;BME280;52034;51.926;6.320;2022-12-18T05:17:18;102788.50;;;-7.52;88.37
58102;BME280;52034;51.926;6.320;2022-12-18T05:18:19;102793.38;;;-7.53;87.99
58102;BME280;52034;51.926;6.320;2022-12-18T05:19:19;102802.81;;;-7.52;88.36
58102;BME280;52034;51.926;6.320;2022-12-18T05:20:19;102798.31;;;-7.48;88.13
58102;BME280;52034;51.926;6.320;2022-12-18T05:21:20;102798.66;;;-7.52;88.89
58102;BME280;52034;51.926;6.320;2022-12-18T05:22:20;102802.50;;;-7.48;88.95
58102;BME280;52034;51.926;6.320;2022-12-18T05:23:22;102799.25;;;-7.47;88.22
58102;BME280;52034;51.926;6.320;2022-12-18T05:24:22;102790.94;;;-7.46;88.55
58102;BME280;52034;51.926;6.320;2022-12-18T05:25:23;102801.97;;;-7.46;88.90
58102;BME280;52034;51.926;6.320;2022-12-18T05:26:24;102806.22;;;-7.39;89.14
58102;BME280;52034;51.926;6.320;2022-12-18T05:27:24;102809.97;;;-7.43;88.27
58102;BME280;52034;51.926;6.320;2022-12-18T05:28:26;102819.28;;;-7.36;88.84
58102;BME280;52034;51.926;6.320;2022-12-18T05:29:27;102816.22;;;-7.33;89.46
58102;BME280;52034;51.926;6.320;2022-12-18T05:30:27;102815.91;;;-7.29;89.25
58102;BME280;52034;51.926;6.320;2022-12-18T05:31:28;102815.13;;;-7.35;89.13
58102;BME280;52034;51.926;6.320;2022-12-18T05:32:28;102824.13;;;-7.45;88.54
58102;BME280;52034;51.926;6.320;2022-12-18T05:33:31;102824.81;;;-7.46;88.01
58102;BME280;52034;51.926;6.320;2022-12-18T05:34:31;102830.28;;;-7.43;88.17
58102;BME280;52034;51.926;6.320;2022-12-18T05:35:33;102832.06;;;-7.49;89.18
58102;BME280;52034;51.926;6.320;2022-12-18T05:36:33;102842.00;;;-7.50;88.45
58102;BME280;52034;51.926;6.320;2022-12-18T05:37:34;102838.03;;;-7.48;88.25
58102;BME280;52034;51.926;6.320;2022-12-18T05:38:36;102834.97;;;-7.46;88.57
58102;BME280;52034;51.926;6.320;2022-12-18T05:39:36;102838.03;;;-7.48;88.69
58102;BME280;52034;51.926;6.320;2022-12-18T05:40:37;102840.19;;;-7.51;88.40
58102;BME280;52034;51.926;6.320;2022-12-18T05:41:37;102834.66;;;-7.42;88.92
58102;BME280;52034;51.926;6.320;2022-12-18T05:42:37;102813.69;;;-7.53;88.40
58102;BME280;52034;51.926;6.320;2022-12-18T05:43:39;102841.38;;;-7.42;88.27
58102;BME280;52034;51.926;6.320;2022-12-18T05:44:39;102840.50;;;-7.56;88.45
58102;BME280;52034;51.926;6.320;2022-12-18T05:45:40;102840.03;;;-7.66;87.63
58102;BME280;52034;51.926;6.320;2022-12-18T05:46:41;102844.91;;;-7.67;87.51
58102;BME280;52034;51.926;6.320;2022-12-18T05:47:41;102853.94;;;-7.69;88.11
58102;BME280;52034;51.926;6.320;2022-12-18T05:48:42;102855.63;;;-7.83;87.84
58102;BME280;52034;51.926;6.320;2022-12-18T05:49:42;102847.31;;;-7.95;87.79
58102;BME280;52034;51.926;6.320;2022-12-18T05:50:44;102851.88;;;-7.92;88.54